createdAt,value
2019-04-14T00:00:29.479Z,68.81
2019-04-14T00:03:04.445Z,69.14
2019-04-14T00:05:32.749Z,69.27
2019-04-14T00:08:00.237Z,69.07
2019-04-14T00:10:26.808Z,69.06
2019-04-14T00:12:53.534Z,69.24
2019-04-14T00:15:29.225Z,69.75
2019-04-14T00:17:47.999Z,70.09
2019-04-14T00:20:16.347Z,70.30
2019-04-14T00:22:42.766Z,70.40
2019-04-14T00:25:09.166Z,69.98
2019-04-14T00:27:36.653Z,70.05
2019-04-14T00:30:07.640Z,70.03
2019-04-14T00:32:35.955Z,70.42
2019-04-14T00:35:08.229Z,71.13
2019-04-14T00:37:53.362Z,69.93
2019-04-14T00:40:21.660Z,70.09
2019-04-14T00:43:00.577Z,70.17
2019-04-14T00:45:40.492Z,70.38
2019-04-14T00:48:09.038Z,70.75
2019-04-14T00:50:29.845Z,70.69
2019-04-14T00:52:56.654Z,70.82
2019-04-14T00:55:23.084Z,70.76
2019-04-14T00:57:49.207Z,70.97
2019-04-14T01:00:17.607Z,71.19
2019-04-14T01:02:44.973Z,71.48
2019-04-14T01:05:13.747Z,71.42
2019-04-14T01:07:39.936Z,71.39
2019-04-14T01:10:08.179Z,71.60
2019-04-14T01:12:34.362Z,72.08
2019-04-14T01:15:00.830Z,72.37
2019-04-14T01:17:26.921Z,72.28
2019-04-14T01:19:53.082Z,72.45
2019-04-14T01:22:20.540Z,72.78
2019-04-14T01:24:46.905Z,72.73
2019-04-14T01:27:13.013Z,72.91
2019-04-14T01:29:40.471Z,73.03
2019-04-14T01:32:06.666Z,73.16
2019-04-14T01:34:32.964Z,73.01
2019-04-14T01:36:59.115Z,73.13
2019-04-14T01:39:26.420Z,73.34
2019-04-14T01:41:52.793Z,73.38
2019-04-14T01:44:19.917Z,73.14
2019-04-14T01:46:46.074Z,73.19
2019-04-14T01:49:13.592Z,73.25
2019-04-14T01:51:48.417Z,73.28
2019-04-14T01:54:17.127Z,73.41
2019-04-14T01:56:49.218Z,73.38
2019-04-14T01:59:17.303Z,73.57
2019-04-14T02:01:48.153Z,73.61
2019-04-14T02:04:14.363Z,73.77
2019-04-14T02:06:40.461Z,73.92
2019-04-14T02:09:09.698Z,73.75
2019-04-14T02:11:36.015Z,73.95
2019-04-14T02:14:03.603Z,73.99
2019-04-14T02:16:37.851Z,73.59
2019-04-14T02:18:58.650Z,73.18
2019-04-14T02:21:25.969Z,73.26
2019-04-14T02:23:52.192Z,73.35
2019-04-14T02:26:19.671Z,73.51
2019-04-14T02:28:46.205Z,73.54
2019-04-14T02:31:31.777Z,73.93
2019-04-14T02:34:07.485Z,74.53
2019-04-14T02:36:39.785Z,74.38
2019-04-14T02:39:22.319Z,74.26
2019-04-14T02:44:04.172Z,74.33
2019-04-14T02:46:31.422Z,74.09
2019-04-14T02:56:22.284Z,74.30
2019-04-14T02:58:52.025Z,74.39
2019-04-14T03:01:35.374Z,74.55
2019-04-14T03:03:43.864Z,74.61
2019-04-14T03:06:12.493Z,74.91
2019-04-14T03:08:45.636Z,75.08
2019-04-14T03:11:09.554Z,75.03
2019-04-14T03:13:35.966Z,74.98
2019-04-14T03:16:02.298Z,75.13
2019-04-14T03:18:39.629Z,75.00
2019-04-14T03:21:21.367Z,74.95
2019-04-14T03:26:47.427Z,74.76
2019-04-14T03:29:21.601Z,74.33
2019-04-14T03:39:36.981Z,73.97
2019-04-14T03:41:36.819Z,73.76
2019-04-14T03:44:10.486Z,73.61
2019-04-14T03:49:06.272Z,73.33
2019-04-14T03:51:40.458Z,73.07
2019-04-14T03:53:59.102Z,72.93
2019-04-14T03:56:11.378Z,72.85
2019-04-14T03:58:35.926Z,72.74
2019-04-14T04:01:02.143Z,72.72
2019-04-14T04:03:28.279Z,72.64
2019-04-14T04:05:54.574Z,72.54
2019-04-14T04:08:22.348Z,72.52
2019-04-14T04:10:51.101Z,72.42
2019-04-14T04:13:17.423Z,72.39
2019-04-14T04:15:43.754Z,72.37
2019-04-14T04:18:29.222Z,72.38
2019-04-14T04:20:58.833Z,72.32
2019-04-14T04:23:42.505Z,72.26
2019-04-14T04:26:14.657Z,72.28
2019-04-14T04:28:58.370Z,72.29
2019-04-14T04:31:29.241Z,72.33
2019-04-14T04:34:01.057Z,72.45
2019-04-14T04:36:46.387Z,72.42
2019-04-14T04:39:21.426Z,72.24
2019-04-14T04:41:47.633Z,72.05
2019-04-14T04:44:13.858Z,72.02
2019-04-14T04:46:39.946Z,71.92
2019-04-14T04:49:11.730Z,71.95
2019-04-14T04:51:34.321Z,71.91
2019-04-14T04:54:01.703Z,71.94
2019-04-14T04:56:28.122Z,71.76
2019-04-14T04:58:54.536Z,71.63
2019-04-14T05:01:20.997Z,71.59
2019-04-14T05:03:47.161Z,71.43
2019-04-14T05:06:40.058Z,71.41
2019-04-14T05:09:14.462Z,71.31
2019-04-14T05:11:42.690Z,71.21
2019-04-14T05:14:13.610Z,71.11
2019-04-14T05:16:39.842Z,71.00
2019-04-14T05:19:17.796Z,70.94
2019-04-14T05:21:34.335Z,70.91
2019-04-14T05:24:00.717Z,70.83
2019-04-14T05:26:27.024Z,70.81
2019-04-14T05:28:53.200Z,70.71
2019-04-14T05:31:20.679Z,70.70
2019-04-14T05:33:47.131Z,70.66
2019-04-14T05:36:13.336Z,70.55
2019-04-14T05:38:40.655Z,70.37
2019-04-14T05:41:07.091Z,70.00
2019-04-14T05:43:41.514Z,70.02
2019-04-14T05:46:01.391Z,70.03
2019-04-14T05:48:29.411Z,70.31
2019-04-14T05:50:55.834Z,70.57
2019-04-14T05:53:21.943Z,70.72
2019-04-14T05:55:48.264Z,70.86
2019-04-14T05:58:14.434Z,70.82
2019-04-14T06:00:43.742Z,70.79
2019-04-14T06:03:10.356Z,70.75
2019-04-14T06:05:36.694Z,70.87
2019-04-14T06:08:03.023Z,70.62
2019-04-14T06:10:29.326Z,70.54
2019-04-14T06:12:55.567Z,70.73
2019-04-14T06:15:21.773Z,70.75
2019-04-14T06:17:47.947Z,70.57
2019-04-14T06:20:14.308Z,70.90
2019-04-14T06:22:40.707Z,71.32
2019-04-14T06:25:07.316Z,71.45
2019-04-14T06:27:34.511Z,71.55
2019-04-14T06:30:02.636Z,71.77
2019-04-14T06:32:37.669Z,71.80
2019-04-14T06:35:18.200Z,71.95
2019-04-14T06:37:52.302Z,72.33
2019-04-14T06:40:19.463Z,72.43
2019-04-14T06:42:45.614Z,72.63
2019-04-14T06:45:12.070Z,72.95
2019-04-14T06:47:38.283Z,72.92
2019-04-14T06:50:05.641Z,72.98
2019-04-14T06:52:31.880Z,73.21
2019-04-14T06:54:57.990Z,72.91
2019-04-14T06:57:25.303Z,73.37
2019-04-14T06:59:51.383Z,73.33
2019-04-14T07:02:17.594Z,72.93
2019-04-14T07:04:43.740Z,73.28
2019-04-14T07:07:09.984Z,73.61
2019-04-14T07:09:36.178Z,73.59
2019-04-14T07:12:02.394Z,74.04
2019-04-14T07:14:32.044Z,74.23
2019-04-14T07:16:57.791Z,73.68
2019-04-14T07:19:23.977Z,74.21
2019-04-14T07:21:50.138Z,74.38
2019-04-14T07:24:16.299Z,74.16
2019-04-14T07:26:42.462Z,74.33
2019-04-14T07:29:08.622Z,74.26
2019-04-14T07:31:43.076Z,74.29
2019-04-14T07:34:11.142Z,74.07
2019-04-14T07:36:56.087Z,74.07
2019-04-14T07:39:40.553Z,73.87
2019-04-14T07:42:10.951Z,73.44
2019-04-14T07:44:55.459Z,73.37
2019-04-14T07:47:40.469Z,73.55
2019-04-14T07:50:25.628Z,73.09
2019-04-14T07:52:53.668Z,73.08
2019-04-14T07:55:40.234Z,73.33
2019-04-14T07:58:11.219Z,73.26
2019-04-14T08:00:48.675Z,73.47
2019-04-14T08:03:19.728Z,73.45
2019-04-14T08:05:45.992Z,73.14
2019-04-14T08:08:12.362Z,72.86
2019-04-14T08:10:38.971Z,72.78
2019-04-14T08:13:05.195Z,72.65
2019-04-14T08:15:31.443Z,72.71
2019-04-14T08:17:57.652Z,72.71
2019-04-14T08:20:27.725Z,72.80
2019-04-14T08:22:52.368Z,72.56
2019-04-14T08:25:18.619Z,72.47
2019-04-14T08:27:44.846Z,72.30
2019-04-14T08:30:11.679Z,72.37
2019-04-14T08:32:37.852Z,72.11
2019-04-14T08:35:06.108Z,72.13
2019-04-14T08:37:32.732Z,72.16
2019-04-14T08:39:58.895Z,71.66
2019-04-14T08:42:27.035Z,71.89
2019-04-14T08:44:55.260Z,71.76
2019-04-14T08:47:38.676Z,71.46
2019-04-14T08:50:23.973Z,71.19
2019-04-14T08:53:01.265Z,71.23
2019-04-14T08:55:35.625Z,71.18
2019-04-14T08:58:04.255Z,71.23
2019-04-14T09:00:49.204Z,71.13
2019-04-14T09:03:24.503Z,70.97
2019-04-14T09:06:04.946Z,70.44
2019-04-14T09:08:36.061Z,70.39
2019-04-14T09:11:06.756Z,70.17
2019-04-14T09:13:33.004Z,70.79
2019-04-14T09:15:59.380Z,70.72
2019-04-14T09:18:25.561Z,70.90
2019-04-14T09:20:52.823Z,70.71
2019-04-14T09:23:19.077Z,70.95
2019-04-14T09:25:45.777Z,71.05
2019-04-14T09:28:12.058Z,70.98
2019-04-14T09:30:38.235Z,70.75
2019-04-14T09:33:04.905Z,71.01
2019-04-14T09:35:32.257Z,70.83
2019-04-14T09:37:59.165Z,70.95
2019-04-14T09:40:25.640Z,70.95
2019-04-14T09:42:53.835Z,70.75
2019-04-14T09:45:20.095Z,71.13
2019-04-14T09:47:46.495Z,70.95
2019-04-14T09:50:12.980Z,71.08
2019-04-14T09:52:39.231Z,71.15
2019-04-14T09:55:05.572Z,71.08
2019-04-14T09:57:31.888Z,71.09
2019-04-14T09:59:58.003Z,71.15
2019-04-14T10:02:24.229Z,71.06
2019-04-14T10:04:50.392Z,71.09
2019-04-14T10:07:16.673Z,71.13
2019-04-14T10:09:42.903Z,71.14
2019-04-14T10:12:09.010Z,71.28
2019-04-14T10:14:35.222Z,71.29
2019-04-14T10:17:01.732Z,71.27
2019-04-14T10:19:28.174Z,71.52
2019-04-14T10:21:55.071Z,71.57
2019-04-14T10:24:21.559Z,71.59
2019-04-14T10:26:48.010Z,71.79
2019-04-14T10:29:14.179Z,71.86
2019-04-14T10:31:40.406Z,71.96
2019-04-14T10:34:06.541Z,71.99
2019-04-14T10:36:33.780Z,71.93
2019-04-14T10:39:00.017Z,71.85
2019-04-14T10:41:26.124Z,71.90
2019-04-14T10:43:52.354Z,71.98
2019-04-14T10:46:18.481Z,72.01
2019-04-14T10:48:44.685Z,72.07
2019-04-14T10:51:10.884Z,71.89
2019-04-14T10:53:37.165Z,71.85
2019-04-14T10:56:03.438Z,71.71
2019-04-14T10:58:29.675Z,71.96
2019-04-14T11:00:56.006Z,71.80
2019-04-14T11:03:22.933Z,71.59
2019-04-14T11:05:57.974Z,71.64
2019-04-14T11:08:24.132Z,71.62
2019-04-14T11:10:50.374Z,71.30
2019-04-14T11:13:16.500Z,71.47
2019-04-14T11:15:42.766Z,71.72
2019-04-14T11:18:08.944Z,71.78
2019-04-14T11:20:35.822Z,71.51
2019-04-14T11:23:03.506Z,71.28
2019-04-14T11:25:29.965Z,71.28
2019-04-14T11:27:56.211Z,71.41
2019-04-14T11:30:23.462Z,71.20
2019-04-14T11:33:01.205Z,71.32
2019-04-14T11:35:29.362Z,71.14
2019-04-14T11:38:09.806Z,71.21
2019-04-14T11:40:53.193Z,71.09
2019-04-14T11:43:19.402Z,70.90
2019-04-14T11:45:45.889Z,71.05
2019-04-14T11:48:12.463Z,70.73
2019-04-14T11:50:38.731Z,70.80
2019-04-14T11:53:05.009Z,70.89
2019-04-14T11:55:32.155Z,71.00
2019-04-14T11:57:58.489Z,70.71
2019-04-14T12:00:32.333Z,70.25
2019-04-14T12:03:16.135Z,70.24
2019-04-14T12:05:50.311Z,70.11
2019-04-14T12:08:21.082Z,69.92
2019-04-14T12:10:47.410Z,69.42
2019-04-14T12:13:13.517Z,69.28
2019-04-14T12:15:39.743Z,69.45
2019-04-14T12:18:05.914Z,69.66
2019-04-14T12:20:33.247Z,69.20
2019-04-14T12:22:59.668Z,68.97
2019-04-14T12:25:25.943Z,69.58
2019-04-14T12:27:53.456Z,69.77
2019-04-14T12:30:20.226Z,69.20
2019-04-14T12:32:46.509Z,69.59
2019-04-14T12:35:12.911Z,69.38
2019-04-14T12:37:39.314Z,69.65
2019-04-14T12:40:05.522Z,69.67
2019-04-14T12:42:48.521Z,69.83
2019-04-14T12:45:26.144Z,69.75
2019-04-14T12:47:54.387Z,69.88
2019-04-14T12:50:39.349Z,69.61
2019-04-14T12:53:06.424Z,69.84
2019-04-14T12:55:33.271Z,69.93
2019-04-14T12:58:01.543Z,69.90
2019-04-14T13:00:44.602Z,69.61
2019-04-14T13:03:10.806Z,69.77
2019-04-14T13:05:37.027Z,69.83
2019-04-14T13:08:03.642Z,70.13
2019-04-14T13:10:29.800Z,69.95
2019-04-14T13:12:56.004Z,70.13
2019-04-14T13:15:22.175Z,70.63
2019-04-14T13:17:49.661Z,70.63
2019-04-14T13:20:16.030Z,70.61
2019-04-14T13:22:42.294Z,70.81
2019-04-14T13:25:08.827Z,70.83
2019-04-14T13:27:34.940Z,70.86
2019-04-14T13:30:01.164Z,71.25
2019-04-14T13:32:35.823Z,71.13
2019-04-14T13:34:56.489Z,71.43
2019-04-14T13:37:22.643Z,70.99
2019-04-14T13:39:48.918Z,71.18
2019-04-14T13:42:16.105Z,71.25
2019-04-14T13:44:42.399Z,71.21
2019-04-14T13:47:09.791Z,70.79
2019-04-14T13:49:36.126Z,70.72
2019-04-14T13:52:02.366Z,70.85
2019-04-14T13:54:28.574Z,70.72
2019-04-14T13:56:54.921Z,70.53
2019-04-14T13:59:21.042Z,70.54
2019-04-14T14:01:47.269Z,70.49
2019-04-14T14:04:13.448Z,70.34
2019-04-14T14:06:39.683Z,70.18
2019-04-14T14:09:09.252Z,70.15
2019-04-14T14:11:40.342Z,70.39
2019-04-14T14:14:11.191Z,70.43
2019-04-14T14:16:57.547Z,70.79
2019-04-14T14:19:25.762Z,70.86
2019-04-14T14:21:56.793Z,71.12
2019-04-14T14:24:27.501Z,71.24
2019-04-14T14:26:58.583Z,71.80
2019-04-14T14:29:24.727Z,71.83
2019-04-14T14:31:51.678Z,72.49
2019-04-14T14:34:18.097Z,72.08
2019-04-14T14:36:44.254Z,72.12
2019-04-14T14:39:10.739Z,72.47
2019-04-14T14:41:37.338Z,72.72
2019-04-14T14:44:03.835Z,72.86
2019-04-14T14:46:31.962Z,73.15
2019-04-14T14:49:00.089Z,73.26
2019-04-14T14:51:39.985Z,73.42
2019-04-14T14:54:06.333Z,73.60
2019-04-14T14:56:32.482Z,73.63
2019-04-14T14:58:58.684Z,73.69
2019-04-14T15:01:24.821Z,73.76
2019-04-14T15:03:51.069Z,73.93
2019-04-14T15:06:17.237Z,74.03
2019-04-14T15:08:43.448Z,74.09
2019-04-14T15:11:09.631Z,74.14
2019-04-14T15:13:35.998Z,74.24
2019-04-14T15:16:02.372Z,74.10
2019-04-14T15:18:28.617Z,74.12
2019-04-14T15:20:54.833Z,74.39
2019-04-14T15:23:25.085Z,74.30
2019-04-14T15:25:49.108Z,74.48
2019-04-14T15:28:15.786Z,74.45
2019-04-14T15:30:42.246Z,74.48
2019-04-14T15:33:08.507Z,74.68
2019-04-14T15:35:34.776Z,74.78
2019-04-14T15:38:01.061Z,74.92
2019-04-14T15:40:27.360Z,74.81
2019-04-14T15:42:53.642Z,75.04
2019-04-14T15:45:19.887Z,75.36
2019-04-14T15:47:46.251Z,75.39
2019-04-14T15:50:12.720Z,75.41
2019-04-14T15:52:38.965Z,75.40
2019-04-14T15:55:06.657Z,75.54
2019-04-14T15:57:46.814Z,75.58
2019-04-14T16:00:21.448Z,75.66
2019-04-14T16:02:52.633Z,75.88
2019-04-14T16:05:30.092Z,75.86
2019-04-14T16:08:07.499Z,75.68
2019-04-14T16:10:52.579Z,76.31
2019-04-14T16:13:23.936Z,76.56
2019-04-14T16:15:57.873Z,76.62
2019-04-14T16:18:26.276Z,76.87
2019-04-14T16:20:52.619Z,76.90
2019-04-14T16:23:18.863Z,76.91
2019-04-14T16:25:46.967Z,77.10
2019-04-14T16:28:17.753Z,77.08
2019-04-14T16:30:51.420Z,77.16
2019-04-14T16:33:19.566Z,77.12
2019-04-14T16:35:47.264Z,77.30
2019-04-14T16:38:13.548Z,77.42
2019-04-14T16:40:39.778Z,77.55
2019-04-14T16:43:06.011Z,77.62
2019-04-14T16:45:32.223Z,77.62
2019-04-14T16:47:58.640Z,77.74
2019-04-14T16:50:24.738Z,77.72
2019-04-14T16:53:01.704Z,77.72
2019-04-14T16:55:46.245Z,77.88
2019-04-14T16:58:14.438Z,77.93
2019-04-14T17:00:42.598Z,78.01
2019-04-14T17:03:08.923Z,78.04
2019-04-14T17:05:35.135Z,78.05
2019-04-14T17:08:01.508Z,78.22
2019-04-14T17:10:27.829Z,78.26
2019-04-14T17:12:54.053Z,78.26
2019-04-14T17:15:37.340Z,78.26
2019-04-14T17:18:17.264Z,78.31
2019-04-14T17:21:00.766Z,78.28
2019-04-14T17:23:41.043Z,78.25
2019-04-14T17:26:24.021Z,78.20
2019-04-14T17:28:52.263Z,78.21
2019-04-14T17:31:20.359Z,78.21
2019-04-14T17:33:58.141Z,78.26
2019-04-14T17:36:35.276Z,78.34
2019-04-14T17:39:15.529Z,78.50
2019-04-14T17:41:46.673Z,78.60
2019-04-14T17:44:17.627Z,78.57
2019-04-14T17:46:57.714Z,78.78
2019-04-14T17:49:34.851Z,78.27
2019-04-14T17:52:19.336Z,78.36
2019-04-14T17:54:47.669Z,78.58
2019-04-14T17:57:32.548Z,78.75
2019-04-14T18:00:03.765Z,79.01
2019-04-14T18:02:32.136Z,78.89
2019-04-14T18:05:06.401Z,78.99
2019-04-14T18:07:34.966Z,79.15
2019-04-14T18:10:19.503Z,79.28
2019-04-14T18:12:56.601Z,79.25
2019-04-14T18:15:25.292Z,79.77
2019-04-14T18:18:08.681Z,79.72
2019-04-14T18:20:36.813Z,79.76
2019-04-14T18:23:03.052Z,79.65
2019-04-14T18:25:29.181Z,79.59
2019-04-14T18:27:57.290Z,79.59
2019-04-14T18:30:28.318Z,79.59
2019-04-14T18:32:56.418Z,79.43
2019-04-14T18:35:24.640Z,79.26
2019-04-14T18:37:55.583Z,79.47
2019-04-14T18:40:35.935Z,79.77
2019-04-14T18:43:09.815Z,79.78
2019-04-14T18:45:38.015Z,79.72
2019-04-14T18:48:12.054Z,79.84
2019-04-14T18:50:59.034Z,79.68
2019-04-14T18:53:27.060Z,79.86
2019-04-14T18:56:13.514Z,80.14
2019-04-14T18:58:44.223Z,80.13
2019-04-14T19:01:19.397Z,80.01
2019-04-14T19:03:45.501Z,79.97
2019-04-14T19:06:11.708Z,80.11
2019-04-14T19:08:37.820Z,80.45
2019-04-14T19:11:14.854Z,80.39
2019-04-14T19:13:42.994Z,80.42
2019-04-14T19:16:20.189Z,80.33
2019-04-14T19:18:48.382Z,80.31
2019-04-14T19:21:16.523Z,80.62
2019-04-14T19:23:42.658Z,80.75
2019-04-14T19:26:08.856Z,80.54
2019-04-14T19:28:35.040Z,80.44
2019-04-14T19:31:01.320Z,80.45
2019-04-14T19:33:27.528Z,80.42
2019-04-14T19:35:53.647Z,80.24
2019-04-14T19:38:19.867Z,80.35
2019-04-14T19:40:46.082Z,80.36
2019-04-14T19:43:23.164Z,80.42
2019-04-14T19:45:40.714Z,80.47
2019-04-14T19:48:06.889Z,80.68
2019-04-14T19:50:33.112Z,80.48
2019-04-14T19:52:59.377Z,80.18
2019-04-14T19:55:25.530Z,80.26
2019-04-14T19:57:51.919Z,80.29
2019-04-14T20:00:18.420Z,80.66
2019-04-14T20:02:44.611Z,80.76
2019-04-14T20:05:11.031Z,80.90
2019-04-14T20:07:37.344Z,80.77
2019-04-14T20:10:05.450Z,80.66
2019-04-14T20:12:31.745Z,80.65
2019-04-14T20:14:59.023Z,80.82
2019-04-14T20:17:27.410Z,80.81
2019-04-14T20:20:08.040Z,80.79
2019-04-14T20:22:51.443Z,80.88
2019-04-14T20:25:32.853Z,80.89
2019-04-14T20:27:56.304Z,80.78
2019-04-14T20:30:39.803Z,80.62
2019-04-14T20:33:06.001Z,80.98
2019-04-14T20:35:33.210Z,81.02
2019-04-14T20:37:59.438Z,81.16
2019-04-14T20:40:25.764Z,81.12
2019-04-14T20:42:51.912Z,80.89
2019-04-14T20:45:18.378Z,80.99
2019-04-14T20:47:44.572Z,81.07
2019-04-14T20:50:11.127Z,80.90
2019-04-14T20:52:37.388Z,80.84
2019-04-14T20:55:05.615Z,80.77
2019-04-14T20:57:31.749Z,80.93
2019-04-14T20:59:58.015Z,81.11
2019-04-14T21:02:28.811Z,80.98
2019-04-14T21:04:56.991Z,81.19
2019-04-14T21:07:27.897Z,81.02
2019-04-14T21:09:55.929Z,80.86
2019-04-14T21:12:24.052Z,81.15
2019-04-14T21:15:04.194Z,81.19
2019-04-14T21:17:35.303Z,81.17
2019-04-14T21:20:15.536Z,81.12
2019-04-14T21:22:44.735Z,81.30
2019-04-14T21:25:18.692Z,81.16
2019-04-14T21:28:03.729Z,81.11
2019-04-14T21:30:41.168Z,81.40
2019-04-14T21:33:18.826Z,81.20
2019-04-14T21:35:50.017Z,81.18
2019-04-14T21:38:18.071Z,81.30
2019-04-14T21:40:46.222Z,81.73
2019-04-14T21:43:12.316Z,81.28
2019-04-14T21:45:38.527Z,81.26
2019-04-14T21:48:04.638Z,81.19
2019-04-14T21:50:30.874Z,81.34
2019-04-14T21:52:58.160Z,81.68
2019-04-14T21:55:24.487Z,81.83
2019-04-14T21:57:55.198Z,82.01
2019-04-14T22:00:45.449Z,82.18
2019-04-14T22:03:15.577Z,81.99
2019-04-14T22:05:49.730Z,81.84
2019-04-14T22:08:17.852Z,81.78
2019-04-14T22:10:52.072Z,81.79
2019-04-14T22:13:18.300Z,82.11
2019-04-14T22:15:45.520Z,82.37
2019-04-14T22:18:11.738Z,82.51
2019-04-14T22:20:37.918Z,82.54
2019-04-14T22:23:06.198Z,82.59
2019-04-14T22:25:32.369Z,82.69
2019-04-14T22:27:58.595Z,82.72
2019-04-14T22:30:24.752Z,82.79
2019-04-14T22:32:51.037Z,82.85
2019-04-14T22:35:17.392Z,82.90
2019-04-14T22:37:43.659Z,82.70
2019-04-14T22:40:10.208Z,82.55
2019-04-14T22:42:36.574Z,82.43
2019-04-14T22:45:04.768Z,82.34
2019-04-14T22:47:30.876Z,82.22
2019-04-14T22:49:57.111Z,82.23
2019-04-14T22:52:23.220Z,82.29
2019-04-14T22:54:49.446Z,82.18
2019-04-14T22:57:15.582Z,82.17
2019-04-14T22:59:41.860Z,82.10
2019-04-14T23:02:09.998Z,82.03
2019-04-14T23:04:38.008Z,81.96
2019-04-14T23:07:06.220Z,81.92
2019-04-14T23:09:34.236Z,81.81
2019-04-14T23:12:08.419Z,81.81
2019-04-14T23:14:49.622Z,81.82
2019-04-14T23:17:20.845Z,81.75
2019-04-14T23:19:51.826Z,81.73
2019-04-14T23:22:31.929Z,81.70
2019-04-14T23:24:58.197Z,81.66
2019-04-14T23:27:25.606Z,81.61
2019-04-14T23:29:51.902Z,81.60
2019-04-14T23:32:18.328Z,81.78
2019-04-14T23:34:44.546Z,81.84
2019-04-14T23:37:10.653Z,81.83
2019-04-14T23:39:37.875Z,81.84
2019-04-14T23:42:04.300Z,81.73
2019-04-14T23:44:31.631Z,81.68
2019-04-14T23:46:57.910Z,81.61
2019-04-14T23:49:24.192Z,81.81
2019-04-14T23:51:50.368Z,81.90
2019-04-14T23:54:16.850Z,81.80
2019-04-14T23:56:43.157Z,81.92
2019-04-14T23:59:09.268Z,81.79
